Time;durP1;ratioP1;P1;durP2;ratioP2;P2;SDS_P1;SDS_P2;PMS_P1;PMS_P2;Temp;Humidity;BMP_temperature;BMP_pressure;BME280_temperature;BME280_humidity;BME280_pressure;Samples;Min_cycle;Max_cycle;Signal;HPM_P1;HPM_P2
2023/02/16 00:01:34;;;;;;;0.40;0.40;;;3.50;92.30;;;;;;5033954;28;20171;-69
2023/02/16 00:04:00;;;;;;;0.40;0.40;;;3.50;92.60;;;;;;5033608;28;20612;-69
2023/02/16 00:06:28;;;;;;;0.40;0.40;;;3.40;92.70;;;;;;5033269;28;20181;-70
2023/02/16 00:08:55;;;;;;;0.68;0.68;;;3.40;93.00;;;;;;5033605;28;20186;-70
2023/02/16 00:14:10;;;;;;;0.40;0.40;;;3.30;92.90;;;;;;5033455;28;20229;-69
2023/02/16 00:16:37;;;;;;;0.40;0.40;;;3.40;92.90;;;;;;5033458;28;20579;-69
2023/02/16 00:19:22;;;;;;;0.80;0.80;;;3.30;92.80;;;;;;5032215;28;20192;-70
2023/02/16 00:21:51;;;;;;;0.40;0.40;;;3.30;92.80;;;;;;5033542;28;20194;-69
2023/02/16 00:24:16;;;;;;;0.65;0.65;;;3.40;92.70;;;;;;5033293;28;20201;-69
2023/02/16 00:26:43;;;;;;;0.40;0.40;;;3.40;92.80;;;;;;5033212;28;20181;-69
2023/02/16 00:29:21;;;;;;;2.28;2.25;;;3.40;92.80;;;;;;5033345;28;20174;-69
2023/02/16 00:31:47;;;;;;;0.85;0.80;;;3.30;93.00;;;;;;5033342;28;20210;-69
2023/02/16 00:34:30;;;;;;;0.30;0.30;;;3.30;93.20;;;;;;5033255;28;20183;-69
2023/02/16 00:36:57;;;;;;;0.40;0.40;;;3.30;93.00;;;;;;5033013;28;20977;-69
2023/02/16 00:39:24;;;;;;;3.33;0.80;;;3.20;93.00;;;;;;5033195;28;20230;-69
2023/02/16 00:41:52;;;;;;;0.60;0.60;;;3.20;93.40;;;;;;5033064;28;20187;-69
2023/02/16 00:44:26;;;;;;;2.45;2.35;;;3.20;93.80;;;;;;5033059;28;20202;-69
2023/02/16 00:46:52;;;;;;;0.40;0.40;;;3.10;94.20;;;;;;5033061;28;20201;-69
2023/02/16 00:49:19;;;;;;;0.30;0.30;;;3.10;94.50;;;;;;5031940;28;20178;-69
2023/02/16 00:51:45;;;;;;;0.45;0.45;;;3.20;94.30;;;;;;5033120;28;20531;-69
2023/02/16 00:54:11;;;;;;;0.77;0.77;;;3.20;94.10;;;;;;5033371;28;20167;-70
2023/02/16 00:56:37;;;;;;;1.17;1.15;;;3.30;94.10;;;;;;5032930;28;20777;-69
2023/02/16 00:59:06;;;;;;;0.70;0.70;;;3.20;94.10;;;;;;5033144;28;20179;-69
2023/02/16 01:01:35;;;;;;;0.40;0.40;;;3.20;94.40;;;;;;5033055;28;20167;-69
2023/02/16 01:04:04;;;;;;;11.75;1.48;;;3.20;94.50;;;;;;5032910;28;20178;-69
2023/02/16 01:12:14;;;;;;;1.23;1.23;;;3.00;95.30;;;;;;5032989;28;20205;-69
2023/02/16 01:14:40;;;;;;;0.70;0.70;;;3.10;95.10;;;;;;5033116;28;20170;-69
2023/02/16 01:17:05;;;;;;;2.40;2.30;;;3.10;95.00;;;;;;5033474;28;20541;-69
2023/02/16 01:19:31;;;;;;;0.30;0.30;;;3.10;95.20;;;;;;5036766;28;20173;-69
2023/02/16 01:21:58;;;;;;;0.40;0.40;;;3.10;95.20;;;;;;5036533;28;20225;-69
2023/02/16 01:24:23;;;;;;;0.63;0.63;;;3.20;95.20;;;;;;5036582;28;20178;-69
2023/02/16 01:26:49;;;;;;;1.03;1.03;;;3.10;95.20;;;;;;5036374;28;20175;-69
2023/02/16 01:29:20;;;;;;;0.77;0.77;;;3.10;95.30;;;;;;5036810;28;20305;-69
2023/02/16 01:31:46;;;;;;;2.92;1.85;;;3.00;95.30;;;;;;5036362;28;20252;-69
2023/02/16 01:34:13;;;;;;;0.40;0.40;;;3.00;95.50;;;;;;5036488;28;20261;-69
2023/02/16 01:36:45;;;;;;;1.58;1.52;;;2.90;95.70;;;;;;5036185;28;20181;-69
2023/02/16 01:39:13;;;;;;;0.85;0.85;;;3.00;95.80;;;;;;5036443;28;20532;-69
2023/02/16 01:42:17;;;;;;;0.30;0.30;;;3.00;95.70;;;;;;5036158;28;20182;-69
2023/02/16 01:44:48;;;;;;;0.50;0.50;;;3.00;95.40;;;;;;5036060;28;20552;-69
2023/02/16 01:47:34;;;;;;;0.40;0.40;;;3.00;95.60;;;;;;5035906;28;20181;-69
2023/02/16 01:50:16;;;;;;;0.80;0.77;;;3.10;95.70;;;;;;5036314;28;20171;-69
2023/02/16 01:52:46;;;;;;;1.17;1.02;;;3.10;95.80;;;;;;5035959;28;20210;-69
2023/02/16 01:55:31;;;;;;;0.50;0.50;;;3.10;95.80;;;;;;5036207;28;20186;-69
2023/02/16 01:58:21;;;;;;;0.50;0.50;;;3.10;95.90;;;;;;5035941;28;20542;-70
2023/02/16 02:00:55;;;;;;;0.60;0.60;;;3.10;96.10;;;;;;5035844;28;20653;-69
2023/02/16 02:06:28;;;;;;;0.88;0.88;;;3.00;96.30;;;;;;5035745;28;20173;-69
2023/02/16 02:09:21;;;;;;;2.28;1.23;;;3.00;96.40;;;;;;5036139;28;20208;-69
2023/02/16 02:11:56;;;;;;;0.70;0.70;;;3.00;96.50;;;;;;5035875;28;20241;-69
2023/02/16 02:14:26;;;;;;;0.88;0.80;;;3.00;96.60;;;;;;5035891;28;20205;-69
2023/02/16 02:16:57;;;;;;;0.45;0.45;;;3.00;96.70;;;;;;5035518;28;20177;-69
2023/02/16 02:19:24;;;;;;;1.45;1.35;;;3.00;96.70;;;;;;5035733;28;20173;-69
2023/02/16 02:25:24;;;;;;;0.82;0.82;;;3.10;96.20;;;;;;5035623;28;20189;-69
2023/02/16 02:28:13;;;;;;;0.50;0.50;;;3.00;96.10;;;;;;5035053;28;20532;-69
2023/02/16 02:30:44;;;;;;;0.40;0.40;;;3.00;96.50;;;;;;5025349;28;20200;-69
2023/02/16 02:33:34;;;;;;;0.40;0.40;;;2.80;96.70;;;;;;5035157;28;20233;-69
2023/02/16 02:36:15;;;;;;;0.70;0.70;;;2.90;96.90;;;;;;5033817;28;20183;-69
2023/02/16 02:38:49;;;;;;;0.70;0.70;;;2.90;96.80;;;;;;5035321;28;20522;-69
2023/02/16 02:42:16;;;;;;;0.60;0.60;;;2.90;96.90;;;;;;5035352;28;20649;-69
2023/02/16 02:44:22;;;;;;;0.40;0.40;;;2.90;96.90;;;;;;5024475;28;20202;-69
2023/02/16 02:46:48;;;;;;;2.45;1.90;;;2.90;96.80;;;;;;5034975;28;20170;-69
2023/02/16 02:49:14;;;;;;;0.40;0.40;;;2.90;96.70;;;;;;5033635;28;20185;-69
2023/02/16 02:51:40;;;;;;;0.60;0.60;;;2.80;96.80;;;;;;5033666;28;20184;-69
2023/02/16 03:02:43;;;;;;;0.45;0.45;;;2.80;97.10;;;;;;5034897;28;20243;-69
2023/02/16 03:05:11;;;;;;;1.65;1.15;;;2.70;97.10;;;;;;5034878;28;20176;-69
2023/02/16 03:07:48;;;;;;;1.63;1.58;;;2.80;97.10;;;;;;5034603;28;20174;-69
2023/02/16 03:13:22;;;;;;;0.50;0.50;;;2.80;97.10;;;;;;5034730;28;20709;-69
2023/02/16 03:15:54;;;;;;;0.52;0.52;;;2.80;97.20;;;;;;5034400;28;20557;-69
2023/02/16 03:29:25;;;;;;;0.52;0.45;;;2.60;97.70;;;;;;5034483;28;20553;-69
2023/02/16 03:31:53;;;;;;;0.38;0.38;;;2.50;97.90;;;;;;5034233;28;20578;-69
2023/02/16 03:34:20;;;;;;;0.88;0.88;;;2.50;98.00;;;;;;5034115;28;20181;-69
2023/02/16 03:36:49;;;;;;;2.03;1.90;;;2.50;98.00;;;;;;5033989;28;20239;-69
2023/02/16 03:39:16;;;;;;;0.38;0.38;;;2.60;98.10;;;;;;5032608;28;20173;-69
2023/02/16 03:41:50;;;;;;;2.38;1.17;;;2.60;98.00;;;;;;5033767;28;20184;-69
2023/02/16 03:44:16;;;;;;;0.35;0.35;;;2.50;98.10;;;;;;5033830;28;20189;-69
2023/02/16 03:46:42;;;;;;;5.97;4.63;;;2.60;98.10;;;;;;5033800;28;20169;-69
2023/02/16 03:49:08;;;;;;;0.50;0.50;;;2.60;97.90;;;;;;5033957;28;20585;-69
2023/02/16 03:51:33;;;;;;;0.70;0.70;;;2.60;98.00;;;;;;5033847;28;20201;-69
2023/02/16 03:53:59;;;;;;;0.77;0.77;;;2.50;98.10;;;;;;5030747;28;20175;-69
2023/02/16 03:56:24;;;;;;;0.60;0.60;;;2.60;98.20;;;;;;5032618;28;20213;-69
2023/02/16 03:58:50;;;;;;;0.70;0.70;;;2.60;98.10;;;;;;5033786;28;20166;-69
2023/02/16 04:01:16;;;;;;;0.77;0.77;;;2.70;98.00;;;;;;5032795;28;20690;-69
2023/02/16 04:03:41;;;;;;;0.40;0.40;;;2.70;98.00;;;;;;5033890;28;20182;-69
2023/02/16 04:06:07;;;;;;;0.40;0.40;;;2.60;98.10;;;;;;5032671;28;20235;-69
2023/02/16 04:08:33;;;;;;;3.87;2.33;;;2.60;98.00;;;;;;5034053;28;20523;-69
2023/02/16 04:10:59;;;;;;;1.27;1.27;;;2.60;98.10;;;;;;5033973;28;20240;-69
2023/02/16 04:13:25;;;;;;;0.70;0.70;;;2.60;98.10;;;;;;5033521;28;20205;-69
2023/02/16 04:15:51;;;;;;;3.45;3.00;;;2.60;98.10;;;;;;5033410;28;20173;-69
2023/02/16 04:18:16;;;;;;;2.10;2.00;;;2.60;98.10;;;;;;5033840;28;20590;-69
2023/02/16 04:20:42;;;;;;;0.83;0.83;;;2.60;98.10;;;;;;5033785;28;20616;-69
2023/02/16 04:23:08;;;;;;;0.40;0.40;;;2.50;98.20;;;;;;5033858;28;20191;-69
2023/02/16 04:25:33;;;;;;;0.70;0.70;;;2.50;98.10;;;;;;5034022;28;20176;-69
2023/02/16 04:27:59;;;;;;;0.90;0.90;;;2.40;98.20;;;;;;5033365;28;20698;-69
2023/02/16 04:30:29;;;;;;;0.65;0.60;;;2.40;98.30;;;;;;5033430;28;20405;-69
2023/02/16 04:32:55;;;;;;;0.30;0.30;;;2.50;98.50;;;;;;5033404;28;20296;-69
2023/02/16 04:35:21;;;;;;;5.80;1.27;;;2.40;98.60;;;;;;5033333;28;20173;-69
2023/02/16 04:37:47;;;;;;;1.33;1.23;;;2.40;98.60;;;;;;5033060;28;20519;-69
2023/02/16 04:40:15;;;;;;;0.60;0.60;;;2.40;98.50;;;;;;5033821;28;20177;-69
2023/02/16 04:42:42;;;;;;;1.85;0.80;;;2.40;98.50;;;;;;5033401;28;20244;-69
2023/02/16 04:45:08;;;;;;;2.90;2.67;;;2.40;98.40;;;;;;5033502;28;20583;-69
2023/02/16 04:47:34;;;;;;;2.92;2.72;;;2.40;98.40;;;;;;5033272;28;20530;-69
2023/02/16 04:50:00;;;;;;;0.97;0.97;;;2.40;98.50;;;;;;5033511;28;20173;-69
2023/02/16 04:52:25;;;;;;;0.57;0.57;;;2.40;98.60;;;;;;5036325;28;20209;-69
2023/02/16 04:54:51;;;;;;;0.50;0.50;;;2.40;98.60;;;;;;5037566;28;20170;-69
2023/02/16 04:57:18;;;;;;;1.20;1.20;;;2.40;98.60;;;;;;5037092;28;20205;-69
2023/02/16 04:59:44;;;;;;;1.58;0.60;;;2.40;98.70;;;;;;5037235;28;20174;-69
2023/02/16 05:02:10;;;;;;;1.90;1.80;;;2.40;98.70;;;;;;5037224;28;20200;-69
2023/02/16 05:04:36;;;;;;;21.45;2.00;;;2.40;98.80;;;;;;5037502;28;20470;-69
2023/02/16 05:07:01;;;;;;;0.40;0.40;;;2.40;98.90;;;;;;5036886;28;20177;-69
2023/02/16 05:09:27;;;;;;;4.30;2.10;;;2.40;98.80;;;;;;5037439;28;20401;-69
2023/02/16 05:14:45;;;;;;;2.67;1.58;;;2.30;99.10;;;;;;5036862;28;20198;-69
2023/02/16 05:17:13;;;;;;;0.60;0.60;;;2.30;98.80;;;;;;5036826;28;20177;-69
2023/02/16 05:19:39;;;;;;;0.70;0.70;;;2.30;98.60;;;;;;5036789;28;20177;-69
2023/02/16 05:22:06;;;;;;;0.38;0.38;;;2.20;98.80;;;;;;5037208;28;20658;-69
2023/02/16 05:24:33;;;;;;;0.30;0.30;;;2.20;98.80;;;;;;5036737;28;20171;-69
2023/02/16 05:26:59;;;;;;;1.42;1.40;;;2.20;98.80;;;;;;5036659;28;20180;-69
2023/02/16 05:29:25;;;;;;;0.40;0.40;;;2.10;98.80;;;;;;5036985;28;20173;-69
2023/02/16 05:31:50;;;;;;;0.50;0.50;;;2.10;99.00;;;;;;5036900;28;20209;-69
2023/02/16 05:34:16;;;;;;;0.93;0.93;;;2.20;99.10;;;;;;5037104;28;20200;-69
2023/02/16 05:36:42;;;;;;;0.30;0.30;;;2.30;99.10;;;;;;5036622;28;20204;-69
2023/02/16 05:39:07;;;;;;;0.60;0.60;;;2.30;99.10;;;;;;5036361;28;20697;-69
2023/02/16 05:41:33;;;;;;;4.93;0.70;;;2.40;99.10;;;;;;5036473;28;20536;-69
2023/02/16 05:44:00;;;;;;;0.30;0.30;;;2.40;99.00;;;;;;5036529;28;20186;-69
2023/02/16 05:46:29;;;;;;;1.08;1.08;;;2.40;98.80;;;;;;5036220;28;20174;-69
2023/02/16 05:48:54;;;;;;;3.05;2.85;;;2.30;98.80;;;;;;5036843;28;20173;-69
2023/02/16 05:51:20;;;;;;;1.07;1.03;;;2.40;98.70;;;;;;5036753;28;20164;-69
2023/02/16 05:53:46;;;;;;;0.40;0.40;;;2.30;98.50;;;;;;5036055;28;20225;-69
2023/02/16 05:56:12;;;;;;;1.17;1.17;;;2.30;98.20;;;;;;5036000;28;20177;-69
2023/02/16 05:58:38;;;;;;;0.77;0.77;;;2.30;98.40;;;;;;5036381;28;20186;-69
2023/02/16 06:01:04;;;;;;;0.97;0.97;;;2.10;98.60;;;;;;5036504;28;20170;-69
2023/02/16 06:03:31;;;;;;;0.77;0.77;;;2.10;98.90;;;;;;5035907;28;20194;-69
2023/02/16 06:06:00;;;;;;;0.40;0.40;;;2.20;99.00;;;;;;5035862;28;20635;-69
2023/02/16 06:08:26;;;;;;;0.55;0.55;;;2.10;98.80;;;;;;5036001;28;20215;-69
2023/02/16 06:10:53;;;;;;;7.72;1.77;;;2.20;98.80;;;;;;5036019;28;20181;-69
2023/02/16 06:13:20;;;;;;;0.60;0.60;;;2.20;98.70;;;;;;5036035;28;20254;-69
2023/02/16 06:15:46;;;;;;;0.85;0.85;;;2.20;98.60;;;;;;5035973;28;20174;-69
2023/02/16 06:18:12;;;;;;;0.77;0.77;;;2.20;98.70;;;;;;5036264;28;20167;-69
2023/02/16 06:20:39;;;;;;;0.30;0.30;;;2.20;98.70;;;;;;5035725;28;20181;-69
2023/02/16 06:23:07;;;;;;;2.05;1.95;;;2.20;98.70;;;;;;5035530;28;20243;-69
2023/02/16 06:25:33;;;;;;;0.63;0.63;;;2.20;98.60;;;;;;5035738;28;20180;-69
2023/02/16 06:27:59;;;;;;;1.02;1.00;;;2.20;98.60;;;;;;5035650;28;20175;-69
2023/02/16 06:30:25;;;;;;;0.40;0.40;;;2.20;98.70;;;;;;5035972;28;20604;-69
2023/02/16 06:32:50;;;;;;;2.97;2.88;;;2.20;98.70;;;;;;5035258;28;20197;-69
2023/02/16 06:35:16;;;;;;;1.33;1.20;;;2.10;98.80;;;;;;5034097;28;20305;-69
2023/02/16 06:37:42;;;;;;;2.57;1.07;;;2.10;98.90;;;;;;5035290;28;20517;-69
2023/02/16 06:40:10;;;;;;;1.37;1.30;;;2.20;98.80;;;;;;5035678;28;20893;-69
2023/02/16 06:42:36;;;;;;;0.50;0.50;;;2.20;98.60;;;;;;5035345;28;20553;-69
2023/02/16 06:45:03;;;;;;;0.50;0.50;;;2.10;98.70;;;;;;5035733;28;20174;-69
2023/02/16 06:47:28;;;;;;;0.47;0.47;;;2.00;98.80;;;;;;5035536;28;20209;-69
2023/02/16 06:49:54;;;;;;;0.90;0.90;;;2.00;99.00;;;;;;5035310;28;20568;-69
2023/02/16 06:52:20;;;;;;;0.73;0.73;;;2.00;98.80;;;;;;5034850;28;20693;-69
2023/02/16 06:54:46;;;;;;;0.60;0.50;;;2.00;98.70;;;;;;5035235;28;20205;-69
2023/02/16 06:57:11;;;;;;;0.50;0.50;;;2.00;99.00;;;;;;5034882;28;20197;-69
2023/02/16 06:59:38;;;;;;;1.53;1.43;;;2.00;99.10;;;;;;5035425;28;20257;-69
2023/02/16 07:02:04;;;;;;;3.15;1.85;;;2.00;99.20;;;;;;5034731;28;20791;-69
2023/02/16 07:04:30;;;;;;;0.60;0.60;;;2.20;99.20;;;;;;5034888;28;20180;-69
2023/02/16 07:06:55;;;;;;;3.43;1.00;;;2.30;99.10;;;;;;5034715;28;20419;-69
2023/02/16 07:09:21;;;;;;;2.17;2.07;;;2.40;98.60;;;;;;5035117;28;20176;-69
2023/02/16 07:11:47;;;;;;;1.17;1.10;;;2.40;98.60;;;;;;5034928;28;20533;-69
2023/02/16 07:14:14;;;;;;;1.55;1.45;;;2.40;98.70;;;;;;5034486;28;20798;-69
2023/02/16 07:16:40;;;;;;;1.50;1.40;;;2.40;98.70;;;;;;5034327;28;20223;-70
2023/02/16 07:19:06;;;;;;;1.30;1.30;;;2.50;98.70;;;;;;5034578;28;20566;-69
2023/02/16 07:21:32;;;;;;;0.40;0.30;;;2.50;98.70;;;;;;5034307;28;20199;-69
2023/02/16 07:23:58;;;;;;;0.50;0.50;;;2.60;98.60;;;;;;5034322;28;20416;-69
2023/02/16 07:26:23;;;;;;;0.60;0.60;;;2.60;98.50;;;;;;5032477;28;20184;-73
2023/02/16 07:28:49;;;;;;;0.50;0.47;;;2.60;98.50;;;;;;5034783;28;20228;-71
2023/02/16 07:31:15;;;;;;;0.93;0.90;;;2.70;98.60;;;;;;5033870;28;20178;-70
2023/02/16 07:33:41;;;;;;;0.40;0.40;;;2.70;98.50;;;;;;5032916;28;20550;-70
2023/02/16 07:36:09;;;;;;;0.40;0.40;;;2.80;98.50;;;;;;5034023;28;20252;-70
2023/02/16 07:38:35;;;;;;;0.40;0.40;;;2.80;98.40;;;;;;5034375;28;20405;-71
2023/02/16 07:41:01;;;;;;;1.30;1.20;;;2.90;98.30;;;;;;5034494;28;20179;-70
2023/02/16 07:43:27;;;;;;;0.70;0.70;;;3.00;98.00;;;;;;5034149;28;20285;-71
2023/02/16 07:45:52;;;;;;;0.40;0.40;;;3.10;98.00;;;;;;5034441;28;20502;-71
2023/02/16 07:48:18;;;;;;;0.83;0.83;;;3.30;98.50;;;;;;5032487;28;20171;-70
2023/02/16 07:50:44;;;;;;;1.33;1.23;;;4.40;99.90;;;;;;5034215;28;20171;-71
2023/02/16 07:53:09;;;;;;;2.67;2.47;;;6.20;98.10;;;;;;5033995;28;20203;-71
2023/02/16 07:55:42;;;;;;;2.40;2.20;;;8.30;94.20;;;;;;5032310;28;20171;-71
2023/02/16 07:58:08;;;;;;;3.23;3.03;;;10.50;88.50;;;;;;5034398;28;20612;-71
2023/02/16 08:00:34;;;;;;;3.57;3.27;;;12.40;79.90;;;;;;5033958;28;20407;-71
2023/02/16 08:03:00;;;;;;;3.67;1.97;;;14.00;70.00;;;;;;5032149;28;20212;-70
2023/02/16 08:05:25;;;;;;;1.63;1.33;;;15.40;61.40;;;;;;5033813;28;20403;-69
2023/02/16 08:07:51;;;;;;;2.00;1.90;;;16.20;56.00;;;;;;5033830;28;20174;-68
2023/02/16 08:10:17;;;;;;;2.80;2.50;;;17.00;53.40;;;;;;5033679;28;20254;-68
2023/02/16 08:12:42;;;;;;;1.60;1.50;;;17.70;51.40;;;;;;5034088;28;20661;-68
2023/02/16 08:15:08;;;;;;;3.03;1.20;;;18.40;48.30;;;;;;5033536;28;20251;-68
2023/02/16 08:17:35;;;;;;;1.60;1.23;;;18.80;45.80;;;;;;5032197;28;20208;-69
2023/02/16 08:20:01;;;;;;;2.33;1.63;;;19.10;44.60;;;;;;5033677;28;20884;-69
2023/02/16 08:22:32;;;;;;;0.50;0.50;;;19.40;43.20;;;;;;5031808;28;20504;-68
2023/02/16 08:24:58;;;;;;;0.73;0.67;;;19.70;42.80;;;;;;5033970;28;20752;-68
2023/02/16 08:27:25;;;;;;;5.60;1.43;;;19.90;41.70;;;;;;5032988;28;20430;-68
2023/02/16 08:29:52;;;;;;;0.80;0.80;;;20.40;41.20;;;;;;5033396;28;20384;-69
2023/02/16 08:32:18;;;;;;;0.60;0.60;;;20.80;40.30;;;;;;5033393;28;20432;-70
2023/02/16 08:34:44;;;;;;;1.87;1.00;;;21.20;39.50;;;;;;5033584;28;20387;-69
2023/02/16 08:37:11;;;;;;;1.50;1.40;;;21.60;38.70;;;;;;5033106;28;20385;-68
2023/02/16 08:39:37;;;;;;;1.30;1.20;;;22.10;37.80;;;;;;5033728;28;20167;-68
2023/02/16 08:42:04;;;;;;;1.07;0.97;;;22.70;36.80;;;;;;5033496;28;20437;-69
2023/02/16 08:44:29;;;;;;;0.97;0.97;;;23.20;35.80;;;;;;5033054;28;20529;-70
2023/02/16 08:46:58;;;;;;;1.07;0.97;;;23.60;35.30;;;;;;5033232;28;20417;-69
2023/02/16 08:49:24;;;;;;;1.20;1.10;;;23.90;34.50;;;;;;5032008;28;20174;-70
2023/02/16 08:51:53;;;;;;;10.77;5.93;;;24.30;34.80;;;;;;5033336;28;20522;-69
2023/02/16 08:54:29;;;;;;;9.00;4.63;;;24.50;34.30;;;;;;5033032;28;20811;-70
2023/02/16 08:56:56;;;;;;;2.93;2.50;;;24.70;34.10;;;;;;5031542;28;20424;-71
2023/02/16 08:59:22;;;;;;;4.67;2.27;;;24.90;33.10;;;;;;5033173;28;20410;-70
2023/02/16 09:01:48;;;;;;;1.90;1.80;;;24.90;33.10;;;;;;5033205;28;20402;-69
2023/02/16 09:04:16;;;;;;;3.13;2.60;;;24.90;33.10;;;;;;5033441;28;20410;-70
2023/02/16 09:06:43;;;;;;;2.07;1.00;;;24.50;33.40;;;;;;5032866;28;20743;-70
2023/02/16 09:09:10;;;;;;;1.93;1.73;;;24.10;34.30;;;;;;5031787;28;20402;-70
2023/02/16 09:11:36;;;;;;;1.23;1.13;;;23.90;34.60;;;;;;5032682;28;20429;-69
2023/02/16 09:14:03;;;;;;;2.87;2.17;;;23.90;33.90;;;;;;5032778;28;20934;-70
2023/02/16 09:16:33;;;;;;;1.93;1.80;;;23.90;33.20;;;;;;5031525;28;20440;-70
2023/02/16 09:19:03;;;;;;;3.23;1.67;;;24.00;33.40;;;;;;5033125;28;20832;-69
2023/02/16 09:21:33;;;;;;;1.37;1.27;;;24.40;32.50;;;;;;5032574;28;20779;-69
2023/02/16 09:24:03;;;;;;;2.67;2.00;;;24.90;32.70;;;;;;5032813;28;20417;-70
2023/02/16 09:26:35;;;;;;;2.03;1.50;;;25.50;32.60;;;;;;5032786;28;20513;-68
2023/02/16 09:29:02;;;;;;;2.10;1.60;;;26.10;32.40;;;;;;5032725;28;20914;-68
2023/02/16 09:31:31;;;;;;;1.00;0.80;;;26.60;31.60;;;;;;5033032;28;20414;-69
2023/02/16 09:34:01;;;;;;;1.33;0.90;;;27.10;30.80;;;;;;5031239;28;20548;-71
2023/02/16 09:36:27;;;;;;;4.90;1.33;;;27.40;30.60;;;;;;5032365;28;20765;-69
2023/02/16 09:38:55;;;;;;;1.60;1.30;;;27.80;30.00;;;;;;5034801;28;20408;-71
2023/02/16 09:41:34;;;;;;;0.80;0.80;;;28.10;28.70;;;;;;5036565;28;20433;-71
2023/02/16 09:44:24;;;;;;;0.83;0.83;;;28.30;29.10;;;;;;5034560;28;20433;-69
2023/02/16 09:46:51;;;;;;;1.37;1.27;;;28.50;28.50;;;;;;5035012;28;20398;-69
2023/02/16 09:49:33;;;;;;;4.60;1.20;;;28.80;27.90;;;;;;5036324;28;20405;-69
2023/02/16 09:52:05;;;;;;;1.40;1.20;;;29.00;27.90;;;;;;5036357;28;20501;-70
2023/02/16 09:54:44;;;;;;;1.40;1.30;;;29.20;27.60;;;;;;5035375;28;20405;-68
2023/02/16 09:57:31;;;;;;;2.83;1.20;;;29.10;27.70;;;;;;5036020;28;20463;-68
2023/02/16 10:00:15;;;;;;;1.53;1.10;;;28.80;27.40;;;;;;5036151;28;20963;-68
2023/02/16 10:03:12;;;;;;;2.43;1.33;;;28.80;27.40;;;;;;5036298;28;20456;-68
2023/02/16 10:05:51;;;;;;;0.97;0.97;;;28.80;27.90;;;;;;5035824;28;20393;-67
2023/02/16 10:08:38;;;;;;;2.77;1.20;;;28.80;27.30;;;;;;5035756;28;20762;-68
2023/02/16 10:14:04;;;;;;;1.33;1.13;;;28.10;27.70;;;;;;5036257;28;20381;-68
2023/02/16 10:16:37;;;;;;;1.00;0.90;;;27.20;27.30;;;;;;5035771;28;20394;-68
2023/02/16 10:19:17;;;;;;;3.23;1.30;;;26.40;27.40;;;;;;5035882;28;20402;-69
2023/02/16 10:21:48;;;;;;;1.80;1.50;;;25.50;27.70;;;;;;5035829;28;20455;-69
2023/02/16 10:24:14;;;;;;;2.70;0.67;;;24.40;28.70;;;;;;5035906;28;20401;-68
2023/02/16 10:26:49;;;;;;;1.90;1.23;;;23.70;29.00;;;;;;5035446;28;20455;-68
2023/02/16 10:29:18;;;;;;;1.20;1.10;;;23.10;29.50;;;;;;5035848;28;20551;-68
2023/02/16 10:32:06;;;;;;;0.93;0.83;;;22.20;29.70;;;;;;5035705;28;20380;-68
2023/02/16 10:34:48;;;;;;;0.80;0.67;;;22.00;30.60;;;;;;5036016;28;20395;-66
2023/02/16 10:37:36;;;;;;;1.00;0.70;;;21.40;29.80;;;;;;5035198;28;20401;-67
2023/02/16 10:40:11;;;;;;;1.23;1.03;;;21.20;29.60;;;;;;5035406;28;20407;-67
2023/02/16 10:42:58;;;;;;;1.17;1.07;;;21.20;29.70;;;;;;5032024;28;20826;-67
2023/02/16 10:45:42;;;;;;;1.40;1.30;;;21.00;30.00;;;;;;5033795;28;20853;-67
2023/02/16 10:48:09;;;;;;;0.60;0.60;;;21.40;30.20;;;;;;5035169;28;20523;-67
2023/02/16 10:50:42;;;;;;;1.10;1.10;;;21.10;28.60;;;;;;5035003;28;20404;-67
2023/02/16 10:53:47;;;;;;;0.80;0.80;;;21.00;29.30;;;;;;5034944;28;20427;-66
2023/02/16 10:56:31;;;;;;;1.37;0.93;;;20.70;29.00;;;;;;5026588;28;20425;-66
2023/02/16 10:58:59;;;;;;;0.70;0.70;;;20.20;29.30;;;;;;5034773;28;20405;-66
2023/02/16 11:01:52;;;;;;;0.80;0.80;;;19.20;31.10;;;;;;5035062;28;20762;-66
2023/02/16 11:04:40;;;;;;;3.07;1.17;;;18.90;31.70;;;;;;5032202;28;20422;-66
2023/02/16 11:07:16;;;;;;;0.83;0.83;;;18.70;32.20;;;;;;5033374;28;20487;-66
2023/02/16 11:09:45;;;;;;;1.07;0.97;;;18.70;34.40;;;;;;5034581;28;20400;-66
2023/02/16 11:12:34;;;;;;;1.87;1.67;;;18.40;32.50;;;;;;5034532;28;20417;-66
2023/02/16 11:15:17;;;;;;;0.40;0.40;;;18.20;32.20;;;;;;5033389;28;20409;-66
2023/02/16 11:17:51;;;;;;;0.83;0.80;;;18.00;34.30;;;;;;5032977;28;20911;-68
2023/02/16 11:20:29;;;;;;;1.50;0.60;;;17.80;32.50;;;;;;5034647;28;20420;-67
2023/02/16 11:23:14;;;;;;;0.60;0.60;;;17.40;31.60;;;;;;5034399;28;20796;-67
2023/02/16 11:25:40;;;;;;;1.90;1.00;;;17.00;32.80;;;;;;5033312;28;20409;-67
2023/02/16 11:28:06;;;;;;;1.30;1.23;;;16.50;33.70;;;;;;5034259;28;20751;-67
2023/02/16 11:30:34;;;;;;;4.50;1.37;;;15.70;33.50;;;;;;5034836;28;20558;-69
2023/02/16 11:33:02;;;;;;;1.20;1.10;;;15.20;34.60;;;;;;5034127;28;20198;-69
2023/02/16 11:35:30;;;;;;;1.33;0.60;;;14.90;36.00;;;;;;5034372;28;20789;-70
2023/02/16 11:37:56;;;;;;;1.50;0.93;;;14.80;36.80;;;;;;5034235;28;20500;-68
2023/02/16 11:40:23;;;;;;;3.60;2.10;;;14.70;36.00;;;;;;5034510;28;20425;-70
2023/02/16 11:42:53;;;;;;;2.83;1.67;;;14.40;36.00;;;;;;5033863;28;20205;-69
2023/02/16 11:45:21;;;;;;;0.80;0.80;;;14.40;37.00;;;;;;5033981;28;20409;-70
2023/02/16 11:47:53;;;;;;;0.97;0.97;;;14.40;37.00;;;;;;5033761;28;20409;-70
2023/02/16 11:50:25;;;;;;;2.37;2.13;;;14.40;37.40;;;;;;5034154;28;20444;-69
2023/02/16 11:53:12;;;;;;;0.87;0.87;;;14.40;38.40;;;;;;5032425;28;20455;-69
2023/02/16 11:55:42;;;;;;;0.50;0.50;;;14.20;36.50;;;;;;5034021;28;20404;-71
2023/02/16 11:58:22;;;;;;;2.20;2.00;;;14.10;38.00;;;;;;5033872;28;20445;-69
2023/02/16 12:00:57;;;;;;;1.70;1.43;;;14.00;37.40;;;;;;5031650;28;20416;-69
2023/02/16 12:03:51;;;;;;;1.87;0.77;;;14.00;37.50;;;;;;5033548;28;20462;-69
2023/02/16 12:06:48;;;;;;;0.60;0.60;;;13.90;37.50;;;;;;5033671;28;20410;-69
2023/02/16 12:09:49;;;;;;;0.57;0.57;;;13.80;55.90;;;;;;5033952;28;20412;-69
2023/02/16 12:12:37;;;;;;;1.30;1.30;;;13.90;36.50;;;;;;5030815;28;20873;-69
2023/02/16 12:15:14;;;;;;;1.13;0.97;;;13.90;36.90;;;;;;5029535;28;20420;-69
2023/02/16 12:17:45;;;;;;;2.20;0.97;;;14.10;37.80;;;;;;5033721;28;20397;-68
2023/02/16 12:20:34;;;;;;;0.83;0.83;;;14.10;36.80;;;;;;5033486;28;20409;-69
2023/02/16 12:23:18;;;;;;;4.83;1.03;;;14.00;37.10;;;;;;5033053;28;20547;-69
2023/02/16 12:26:10;;;;;;;3.30;1.67;;;14.00;37.50;;;;;;5033353;28;20551;-69
2023/02/16 12:28:47;;;;;;;1.40;1.30;;;13.90;38.30;;;;;;5032671;28;20550;-69
2023/02/16 12:31:37;;;;;;;0.40;0.40;;;13.80;37.70;;;;;;5033991;28;20404;-69
2023/02/16 12:34:08;;;;;;;1.03;0.87;;;14.00;38.20;;;;;;5032282;28;20503;-69
2023/02/16 12:36:42;;;;;;;1.50;1.40;;;14.30;37.90;;;;;;5033160;28;20767;-70
2023/02/16 12:39:08;;;;;;;0.67;0.67;;;14.50;37.80;;;;;;5033777;28;20520;-70
2023/02/16 12:41:40;;;;;;;2.20;0.83;;;14.50;39.10;;;;;;5033803;28;20439;-71
2023/02/16 12:44:19;;;;;;;1.40;1.30;;;14.60;37.30;;;;;;5033080;28;20209;-71
2023/02/16 12:46:50;;;;;;;1.77;1.70;;;14.70;36.90;;;;;;5033182;28;20894;-70
2023/02/16 12:49:26;;;;;;;1.27;1.00;;;14.50;37.30;;;;;;5033294;28;20435;-70
2023/02/16 12:52:11;;;;;;;1.57;1.03;;;14.50;37.90;;;;;;5031907;28;20417;-70
2023/02/16 12:54:51;;;;;;;0.87;0.87;;;14.30;37.70;;;;;;5031997;28;20500;-70
2023/02/16 12:57:20;;;;;;;0.87;0.70;;;14.30;38.00;;;;;;5033327;28;20397;-70
2023/02/16 13:00:13;;;;;;;3.60;1.03;;;14.20;38.40;;;;;;5033485;28;20402;-68
2023/02/16 13:03:07;;;;;;;0.67;0.67;;;14.00;38.30;;;;;;5032101;28;20500;-69
2023/02/16 13:05:39;;;;;;;0.50;0.50;;;14.00;38.80;;;;;;5033380;28;20425;-69
2023/02/16 13:08:23;;;;;;;0.70;0.70;;;13.90;38.20;;;;;;5032943;28;20401;-69
2023/02/16 13:11:10;;;;;;;0.80;0.80;;;13.90;38.20;;;;;;5033149;28;20468;-69
2023/02/16 13:13:37;;;;;;;1.87;0.73;;;13.70;39.70;;;;;;5034856;28;20511;-70
2023/02/16 13:16:40;;;;;;;1.40;0.83;;;13.80;40.00;;;;;;5036721;28;20907;-69
2023/02/16 13:19:13;;;;;;;1.07;1.03;;;13.80;38.90;;;;;;5036962;28;20401;-70
2023/02/16 13:21:57;;;;;;;0.70;0.70;;;13.70;39.90;;;;;;5036945;28;20409;-70
2023/02/16 13:25:02;;;;;;;1.07;1.00;;;13.60;45.00;;;;;;5036977;28;20422;-68
2023/02/16 13:27:31;;;;;;;0.50;0.50;;;13.70;41.00;;;;;;5036451;28;20498;-69
2023/02/16 13:30:26;;;;;;;1.37;0.83;;;13.80;40.40;;;;;;5035349;28;20905;-68
2023/02/16 13:33:18;;;;;;;0.40;0.40;;;13.80;40.20;;;;;;5025424;28;20443;-69
2023/02/16 13:35:51;;;;;;;1.13;0.63;;;13.80;41.00;;;;;;5033072;28;20931;-69
2023/02/16 13:38:44;;;;;;;0.67;0.67;;;13.90;40.70;;;;;;5036545;28;20402;-69
2023/02/16 13:41:47;;;;;;;3.30;2.80;;;13.80;41.00;;;;;;5036537;28;20453;-69
2023/02/16 13:44:31;;;;;;;0.73;0.73;;;13.80;40.20;;;;;;5034676;28;20429;-69
2023/02/16 13:46:57;;;;;;;3.23;1.77;;;13.80;40.60;;;;;;5036128;28;20464;-69
2023/02/16 13:49:28;;;;;;;1.20;0.80;;;13.80;41.70;;;;;;5035937;28;20806;-69
2023/02/16 13:51:53;;;;;;;0.70;0.70;;;13.70;41.00;;;;;;5036090;28;20421;-69
2023/02/16 13:54:42;;;;;;;1.90;1.10;;;13.60;41.50;;;;;;5036120;28;20459;-69
2023/02/16 13:57:12;;;;;;;0.50;0.50;;;13.40;41.00;;;;;;5036080;28;20198;-69
2023/02/16 13:59:38;;;;;;;1.73;1.30;;;13.20;41.30;;;;;;5036059;28;20402;-68